Time;durP1;ratioP1;P1;durP2;ratioP2;P2;SDS_P1;SDS_P2;PMS_P1;PMS_P2;Temp;Humidity;BMP_temperature;BMP_pressure;BME280_temperature;BME280_humidity;BME280_pressure;Samples;Min_cycle;Max_cycle;Signal;HPM_P1;HPM_P2
2024/02/08 06:43:26;;;;;;;6.40;3.88;;;;;;;;;;10507451;28;20480;-85
2024/02/08 07:42:42;;;;;;;10.07;6.43;;;;;;;;;;10507115;28;20041;-83
2024/02/08 07:47:57;;;;;;;6.05;4.22;;;;;;;;;;10516649;28;20086;-83
2024/02/08 07:53:28;;;;;;;10.68;7.28;;;;;;;;;;10491081;28;20052;-82
2024/02/08 07:58:43;;;;;;;10.07;6.82;;;;;;;;;;10469084;28;20067;-83
2024/02/08 08:03:55;;;;;;;12.65;6.25;;;;;;;;;;10464934;28;20472;-80
2024/02/08 08:09:01;;;;;;;12.20;8.30;;;;;;;;;;10482168;28;20440;-81
2024/02/08 08:19:12;;;;;;;;;;;;;;;;;;10470833;28;20036;-81
2024/02/08 08:25:00;;;;;;;17.53;10.67;;;;;;;;;;10468970;28;19912;-83
2024/02/08 08:30:27;;;;;;;12.68;8.63;;;;;;;;;;10471559;28;20409;-83
2024/02/08 08:35:53;;;;;;;12.82;8.55;;;;;;;;;;10468835;28;20035;-81
2024/02/08 08:41:14;;;;;;;10.95;7.38;;;;;;;;;;10469351;28;20115;-80
2024/02/08 08:46:41;;;;;;;18.20;11.55;;;;;;;;;;10470524;28;20048;-82
2024/02/08 08:51:58;;;;;;;9.77;7.03;;;;;;;;;;10466519;28;20033;-80
2024/02/08 08:57:12;;;;;;;13.18;8.30;;;;;;;;;;10468093;28;20091;-79
2024/02/08 09:02:29;;;;;;;11.48;8.30;;;;;;;;;;10477062;28;20033;-80
2024/02/08 09:13:18;;;;;;;11.68;7.25;;;;;;;;;;10466331;28;20120;-83
2024/02/08 09:24:22;;;;;;;12.70;8.75;;;;;;;;;;10464189;28;20033;-81
2024/02/08 09:41:15;;;;;;;10.85;6.88;;;;;;;;;;10470212;28;20041;-82
2024/02/08 09:52:45;;;;;;;10.63;6.85;;;;;;;;;;10355944;28;20046;-82
2024/02/08 10:09:53;;;;;;;14.48;9.02;;;;;;;;;;10382127;28;20482;-85
2024/02/08 10:21:17;;;;;;;9.90;5.82;;;;;;;;;;10471793;28;20527;-82
2024/02/08 10:55:37;;;;;;;9.70;7.45;;;;;;;;;;10549399;28;20102;-86
2024/02/08 11:06:54;;;;;;;8.18;5.97;;;;;;;;;;10549219;28;20048;-85
2024/02/08 11:23:45;;;;;;;;;;;;;;;;;;10533343;28;20036;-81
2024/02/08 11:57:14;;;;;;;10.45;7.00;;;;;;;;;;10517556;28;20047;-88
2024/02/08 12:08:28;;;;;;;8.48;6.53;;;;;;;;;;10560223;28;20016;-85
2024/02/08 12:46:49;;;;;;;;;;;;;;;;;;10555764;28;20094;-84
2024/02/08 12:57:32;;;;;;;8.27;5.63;;;;;;;;;;10453846;22;20053;-84
2024/02/08 13:02:33;;;;;;;;;;;;;;;;;;10408000;28;20442;-84
2024/02/08 13:07:36;;;;;;;5.38;4.07;;;;;;;;;;10391079;28;19912;-84
2024/02/08 13:12:38;;;;;;;6.80;4.10;;;;;;;;;;10408726;28;20563;-84
2024/02/08 13:17:40;;;;;;;7.95;4.57;;;;;;;;;;10415097;28;20018;-84
2024/02/08 13:22:45;;;;;;;5.55;4.30;;;;;;;;;;10425439;28;20038;-84
2024/02/08 13:27:46;;;;;;;5.97;4.38;;;;;;;;;;10404518;28;20030;-83
2024/02/08 13:32:51;;;;;;;9.77;4.72;;;;;;;;;;10390457;28;20038;-84
2024/02/08 13:37:55;;;;;;;6.07;4.50;;;;;;;;;;10407763;28;20058;-83
2024/02/08 13:42:57;;;;;;;5.90;4.28;;;;;;;;;;10427324;28;20038;-82
2024/02/08 13:48:00;;;;;;;5.03;3.30;;;;;;;;;;10382299;28;20041;-82
2024/02/08 13:53:01;;;;;;;5.78;4.57;;;;;;;;;;10385267;28;20472;-82
2024/02/08 13:58:06;;;;;;;;;;;;;;;;;;10385935;28;20060;-82
2024/02/08 14:03:08;;;;;;;6.80;4.97;;;;;;;;;;10386720;28;19932;-83
2024/02/08 14:08:09;;;;;;;6.78;3.72;;;;;;;;;;10403959;28;20045;-83
2024/02/08 14:13:14;;;;;;;5.85;4.30;;;;;;;;;;10403196;28;20034;-83
2024/02/08 14:18:30;;;;;;;6.85;5.45;;;;;;;;;;10402520;28;20034;-84
2024/02/08 14:23:31;;;;;;;6.18;3.80;;;;;;;;;;10404876;28;20037;-83
2024/02/08 14:28:39;;;;;;;6.15;3.58;;;;;;;;;;10388172;28;20038;-84
2024/02/08 14:33:41;;;;;;;6.15;3.33;;;;;;;;;;10404045;28;20030;-84
2024/02/08 14:38:48;;;;;;;6.45;4.05;;;;;;;;;;10411253;28;20045;-84
2024/02/08 14:43:53;;;;;;;4.20;3.38;;;;;;;;;;10397303;28;20022;-84
2024/02/08 14:48:54;;;;;;;4.03;3.22;;;;;;;;;;10395150;28;20022;-84
2024/02/08 14:53:58;;;;;;;8.13;5.97;;;;;;;;;;10399963;28;20096;-84
2024/02/08 15:04:21;;;;;;;4.38;2.85;;;;;;;;;;10392362;28;20172;-83
2024/02/08 15:14:36;;;;;;;5.00;4.15;;;;;;;;;;10391391;28;20378;-83
2024/02/08 15:19:46;;;;;;;4.97;4.30;;;;;;;;;;10409044;28;20034;-83
2024/02/08 15:24:48;;;;;;;6.93;4.65;;;;;;;;;;10394036;28;20464;-83
2024/02/08 15:29:52;;;;;;;5.63;2.80;;;;;;;;;;10414116;28;20060;-82
2024/02/08 15:40:10;;;;;;;4.93;2.67;;;;;;;;;;10395175;28;20127;-84
2024/02/08 15:45:13;;;;;;;6.50;5.25;;;;;;;;;;10412076;28;20041;-84
2024/02/08 15:50:24;;;;;;;7.00;4.70;;;;;;;;;;10414785;28;20053;-83
2024/02/08 15:55:38;;;;;;;8.55;6.80;;;;;;;;;;10424126;28;20069;-84
2024/02/08 16:06:00;;;;;;;9.30;7.40;;;;;;;;;;10393428;28;20046;-82
2024/02/08 16:11:23;;;;;;;9.63;7.30;;;;;;;;;;10405898;28;20041;-81
2024/02/08 16:16:25;;;;;;;6.45;5.05;;;;;;;;;;10397874;28;20041;-80
2024/02/08 16:21:30;;;;;;;8.18;6.15;;;;;;;;;;10395348;28;20034;-82
2024/02/08 16:26:33;;;;;;;10.75;8.70;;;;;;;;;;10410179;28;20034;-81
2024/02/08 16:31:40;;;;;;;10.30;7.32;;;;;;;;;;10408917;28;20038;-82
2024/02/08 16:36:45;;;;;;;13.50;10.00;;;;;;;;;;10394241;28;20069;-82
2024/02/08 16:47:05;;;;;;;13.43;11.23;;;;;;;;;;10397819;28;20065;-82
2024/02/08 16:52:19;;;;;;;7.30;5.43;;;;;;;;;;10396555;28;20505;-83
2024/02/08 16:57:21;;;;;;;5.80;4.30;;;;;;;;;;10409026;28;20034;-82
2024/02/08 17:12:56;;;;;;;4.40;3.60;;;;;;;;;;10408001;28;20061;-83
2024/02/08 17:18:05;;;;;;;4.43;2.58;;;;;;;;;;10418492;28;20037;-84
2024/02/08 17:23:23;;;;;;;5.80;4.00;;;;;;;;;;10395828;28;20098;-84
2024/02/08 17:28:49;;;;;;;6.47;5.60;;;;;;;;;;10395504;28;20029;-83
2024/02/08 17:33:50;;;;;;;7.78;5.90;;;;;;;;;;10392745;28;20121;-83
2024/02/08 17:38:55;;;;;;;;;;;;;;;;;;10393970;28;20034;-84
2024/02/08 17:44:03;;;;;;;6.40;4.72;;;;;;;;;;10392863;28;19932;-84
2024/02/08 17:49:04;;;;;;;6.75;6.03;;;;;;;;;;10410163;28;20033;-83
2024/02/08 17:54:08;;;;;;;5.40;4.82;;;;;;;;;;10410999;28;20068;-83
2024/02/08 17:59:15;;;;;;;6.82;6.13;;;;;;;;;;10410946;28;20069;-85
2024/02/08 18:04:17;;;;;;;12.93;11.48;;;;;;;;;;10419951;28;20094;-84
2024/02/08 18:09:18;;;;;;;10.20;9.20;;;;;;;;;;10399585;28;20057;-84
2024/02/08 18:14:19;;;;;;;5.38;4.82;;;;;;;;;;10411102;28;20117;-83
2024/02/08 18:19:32;;;;;;;;;;;;;;;;;;10420931;28;20053;-85
2024/02/08 18:24:34;;;;;;;8.70;7.78;;;;;;;;;;10417845;28;19905;-83
2024/02/08 18:29:35;;;;;;;8.27;7.40;;;;;;;;;;10411232;28;20053;-83
2024/02/08 18:34:38;;;;;;;6.60;5.90;;;;;;;;;;10406150;28;20030;-82
2024/02/08 18:39:43;;;;;;;5.45;4.53;;;;;;;;;;10389454;28;20521;-83
2024/02/08 18:44:44;;;;;;;8.82;7.40;;;;;;;;;;10405172;28;20041;-83
2024/02/08 18:49:49;;;;;;;5.05;4.25;;;;;;;;;;10389524;28;20106;-82
2024/02/08 18:54:54;;;;;;;5.93;5.30;;;;;;;;;;10403201;28;20038;-80
2024/02/08 18:59:56;;;;;;;5.22;4.72;;;;;;;;;;10398334;28;20045;-79
2024/02/08 19:04:58;;;;;;;6.90;5.78;;;;;;;;;;10398718;28;20038;-80
2024/02/08 19:10:01;;;;;;;6.78;6.07;;;;;;;;;;10402093;28;20058;-80
2024/02/08 19:15:06;;;;;;;12.52;11.23;;;;;;;;;;10385124;28;20050;-79
2024/02/08 19:20:18;;;;;;;9.27;8.27;;;;;;;;;;10382802;28;20030;-80
2024/02/08 19:25:19;;;;;;;8.52;7.65;;;;;;;;;;10390944;28;20038;-81
2024/02/08 19:30:22;;;;;;;8.98;8.05;;;;;;;;;;10408858;28;20030;-80
2024/02/08 19:35:24;;;;;;;5.82;5.15;;;;;;;;;;10406532;28;20094;-81
2024/02/08 19:40:27;;;;;;;9.43;8.43;;;;;;;;;;10402335;28;20037;-80
2024/02/08 19:45:31;;;;;;;7.63;6.85;;;;;;;;;;10384983;28;20044;-82
2024/02/08 19:50:35;;;;;;;5.82;5.22;;;;;;;;;;10409734;28;20030;-80
2024/02/08 19:55:37;;;;;;;8.88;7.97;;;;;;;;;;10390773;28;20045;-80
2024/02/08 20:00:38;;;;;;;6.25;5.55;;;;;;;;;;10410132;28;20037;-81
2024/02/08 20:05:46;;;;;;;7.32;6.55;;;;;;;;;;10397752;28;20044;-79
